createdAt,value
2024-05-09T00:02:23.043Z,100143.53
2024-05-09T00:04:53.395Z,100146.25
2024-05-09T00:07:23.529Z,100144.59
2024-05-09T00:09:53.589Z,100150.03
2024-05-09T00:12:26.436Z,100144.59
2024-05-09T00:14:57.546Z,100142.94
2024-05-09T00:17:27.739Z,100146.69
2024-05-09T00:19:57.953Z,100145.88
2024-05-09T00:22:28.049Z,100158.31
2024-05-09T00:24:58.159Z,100156.69
2024-05-09T00:27:30.916Z,100144.19
2024-05-09T00:30:01.004Z,100145.88
2024-05-09T00:32:31.128Z,100143.38
2024-05-09T00:35:02.470Z,100137.97
2024-05-09T00:37:32.605Z,100143.38
2024-05-09T00:40:02.807Z,100146.09
2024-05-09T00:42:35.522Z,100146.09
2024-05-09T00:45:06.827Z,100145.25
2024-05-09T00:47:37.003Z,100147.16
2024-05-09T00:50:12.721Z,100140.88
2024-05-09T00:52:47.409Z,100141.72
2024-05-09T00:55:17.958Z,100146.28
2024-05-09T00:57:50.730Z,100144.66
2024-05-09T01:00:27.293Z,100150.06
2024-05-09T01:03:05.929Z,100152.16
2024-05-09T01:05:36.153Z,100154.66
2024-05-09T01:08:06.539Z,100147.59
2024-05-09T01:10:36.951Z,100151.59
2024-05-09T01:13:09.910Z,100154.31
2024-05-09T01:15:39.943Z,100154.31
2024-05-09T01:18:11.665Z,100147.81
2024-05-09T01:21:17.047Z,100149.72
2024-05-09T01:23:49.865Z,100150.75
2024-05-09T01:26:20.078Z,100154.31
2024-05-09T01:28:50.207Z,100158.03
2024-05-09T01:31:20.270Z,100154.31
2024-05-09T01:33:50.452Z,100152.63
2024-05-09T01:37:01.638Z,100162.41
2024-05-09T01:39:34.492Z,100163.47
2024-05-09T01:42:04.532Z,100161.81
2024-05-09T01:44:34.681Z,100156.41
2024-05-09T01:47:05.532Z,100164.53
2024-05-09T01:49:40.139Z,100174.28
2024-05-09T01:52:28.008Z,100171.81
2024-05-09T01:55:04.519Z,100180.16
2024-05-09T01:57:36.264Z,100174.75
2024-05-09T02:00:07.935Z,100176.38
2024-05-09T02:02:38.243Z,100174.75
2024-05-09T02:05:09.178Z,100176.84
2024-05-09T02:07:39.394Z,100183.91
2024-05-09T02:10:20.138Z,100176.84
2024-05-09T02:12:53.367Z,100176.03
2024-05-09T02:15:23.439Z,100177.91
2024-05-09T02:17:53.684Z,100173.31
2024-05-09T02:20:33.060Z,100176.25
2024-05-09T02:23:37.568Z,100170.81
2024-05-09T02:26:10.516Z,100170.00
2024-05-09T02:28:40.646Z,100168.97
2024-05-09T02:31:10.696Z,100186.03
2024-05-09T02:33:40.967Z,100186.03
2024-05-09T02:36:12.692Z,100170.81
2024-05-09T02:38:40.147Z,100171.69
2024-05-09T02:41:12.990Z,100172.72
2024-05-09T02:43:40.509Z,100172.72
2024-05-09T02:46:10.604Z,100166.47
2024-05-09T02:48:38.106Z,100177.31
2024-05-09T02:51:08.716Z,100171.06
2024-05-09T02:53:36.563Z,100172.09
2024-05-09T02:56:07.094Z,100178.38
2024-05-09T02:58:37.264Z,100174.00
2024-05-09T03:01:07.665Z,100175.06
2024-05-09T03:03:35.274Z,100170.69
2024-05-09T03:06:05.471Z,100176.09
2024-05-09T03:08:32.863Z,100183.19
2024-05-09T03:11:03.005Z,100175.28
2024-05-09T03:13:30.468Z,100174.44
2024-05-09T03:16:05.428Z,100181.75
2024-05-09T03:18:32.911Z,100172.00
2024-05-09T03:21:03.215Z,100183.63
2024-05-09T03:23:30.707Z,100172.81
2024-05-09T03:26:01.020Z,100180.94
2024-05-09T03:28:28.559Z,100178.22
2024-05-09T03:30:58.671Z,100189.03
2024-05-09T03:33:28.984Z,100184.66
2024-05-09T03:36:00.937Z,100190.06
2024-05-09T03:38:31.276Z,100186.56
2024-05-09T03:40:59.096Z,100186.56
2024-05-09T03:43:29.354Z,100193.63
2024-05-09T03:45:57.903Z,100195.50
2024-05-09T03:48:31.823Z,100192.78
2024-05-09T03:51:00.435Z,100197.63
2024-05-09T03:53:30.584Z,100194.91
2024-05-09T03:55:59.076Z,100204.88
2024-05-09T03:58:30.375Z,100207.59
2024-05-09T04:00:59.283Z,100209.47
2024-05-09T04:03:33.403Z,100202.41
2024-05-09T04:06:02.092Z,100205.34
2024-05-09T04:08:32.177Z,100210.53
2024-05-09T04:11:00.784Z,100211.56
2024-05-09T04:13:31.873Z,100213.25
2024-05-09T04:15:59.308Z,100213.44
2024-05-09T04:18:33.648Z,100215.13
2024-05-09T04:21:03.280Z,100222.38
2024-05-09T04:23:33.702Z,100227.78
2024-05-09T04:26:04.587Z,100228.66
2024-05-09T04:28:34.740Z,100232.16
2024-05-09T04:31:02.124Z,100233.19
2024-05-09T04:33:35.128Z,100239.47
2024-05-09T04:36:02.685Z,100238.03
2024-05-09T04:38:32.931Z,100233.66
2024-05-09T04:41:00.488Z,100237.19
2024-05-09T04:43:30.583Z,100238.25
2024-05-09T04:45:57.972Z,100239.06
2024-05-09T04:48:28.230Z,100241.78
2024-05-09T04:50:58.433Z,100231.78
2024-05-09T04:54:10.588Z,100233.66
2024-05-09T04:56:38.241Z,100238.47
2024-05-09T04:59:08.409Z,100245.53
2024-05-09T05:01:35.941Z,100243.88
2024-05-09T05:04:06.239Z,100250.34
2024-05-09T05:06:36.418Z,100240.34
2024-05-09T05:09:06.487Z,100246.56
2024-05-09T05:11:33.947Z,100243.88
2024-05-09T05:14:04.691Z,100246.81
2024-05-09T05:16:32.146Z,100244.94
2024-05-09T05:19:02.368Z,100255.28
2024-05-09T05:21:29.864Z,100257.78
2024-05-09T05:24:02.636Z,100255.91
2024-05-09T05:26:30.123Z,100258.59
2024-05-09T05:29:00.276Z,100257.78
2024-05-09T05:31:27.791Z,100246.16
2024-05-09T05:33:57.871Z,100270.25
2024-05-09T05:36:25.399Z,100261.31
2024-05-09T05:42:58.759Z,100254.25
2024-05-09T05:45:26.237Z,100259.44
2024-05-09T05:47:56.851Z,100257.53
2024-05-09T05:50:32.265Z,100260.25
2024-05-09T05:53:37.975Z,100253.81
2024-05-09T05:56:06.006Z,100253.81
2024-05-09T05:58:38.886Z,100251.09
2024-05-09T06:01:06.320Z,100255.44
2024-05-09T06:03:36.634Z,100263.34
2024-05-09T06:06:04.505Z,100254.16
2024-05-09T06:08:34.798Z,100264.78
2024-05-09T06:11:03.209Z,100268.06
2024-05-09T06:13:33.293Z,100260.78
2024-05-09T06:16:05.024Z,100260.78
2024-05-09T06:18:35.308Z,100265.75
2024-05-09T06:21:02.977Z,100268.44
2024-05-09T06:27:24.112Z,100269.88
2024-05-09T06:29:51.523Z,100269.63
2024-05-09T06:32:24.469Z,100267.78
2024-05-09T06:34:52.104Z,100271.31
2024-05-09T06:37:22.442Z,100270.50
2024-05-09T06:39:49.873Z,100281.88
2024-05-09T06:42:19.952Z,100280.03
2024-05-09T06:44:47.375Z,100274.63
2024-05-09T06:47:17.534Z,100280.84
2024-05-09T06:49:50.576Z,100283.31
2024-05-09T06:52:23.686Z,100287.91
2024-05-09T06:55:10.968Z,100280.41
2024-05-09T06:57:43.164Z,100285.81
2024-05-09T07:00:15.664Z,100290.75
2024-05-09T07:02:50.002Z,100285.94
2024-05-09T07:05:20.377Z,100286.56
2024-05-09T07:07:50.542Z,100286.56
2024-05-09T07:10:25.425Z,100290.72
2024-05-09T07:12:59.360Z,100286.13
2024-05-09T07:15:26.788Z,100289.44
2024-05-09T07:17:57.071Z,100282.97
2024-05-09T07:20:34.013Z,100293.78
2024-05-09T07:23:05.455Z,100299.19
2024-05-09T07:25:32.933Z,100303.56
2024-05-09T07:28:03.007Z,100303.56
2024-05-09T07:30:33.671Z,100296.03
2024-05-09T07:33:05.003Z,100302.28
2024-05-09T07:35:35.461Z,100300.38
2024-05-09T07:38:05.690Z,100300.38
2024-05-09T07:40:36.407Z,100300.16
2024-05-09T07:43:07.479Z,100299.34
2024-05-09T07:53:37.995Z,100305.72
2024-05-09T07:56:09.096Z,100314.66
2024-05-09T07:58:37.241Z,100306.56
2024-05-09T08:01:07.685Z,100293.84
2024-05-09T08:03:35.413Z,100306.09
2024-05-09T08:06:08.711Z,100310.47
2024-05-09T08:08:36.104Z,100321.88
2024-05-09T08:11:06.506Z,100311.03
2024-05-09T08:13:34.444Z,100314.59
2024-05-09T08:16:04.651Z,100308.94
2024-05-09T08:18:32.344Z,100308.13
2024-05-09T08:21:02.552Z,100320.38
2024-05-09T08:27:27.565Z,100310.16
2024-05-09T08:29:55.033Z,100314.50
2024-05-09T08:32:27.451Z,100310.75
2024-05-09T08:34:54.982Z,100315.09
2024-05-09T08:37:29.446Z,100310.31
2024-05-09T08:40:00.260Z,100311.13
2024-05-09T08:42:37.955Z,100306.53
2024-05-09T08:45:11.714Z,100298.19
2024-05-09T08:47:45.525Z,100307.72
2024-05-09T08:50:28.662Z,100304.78
2024-05-09T08:53:11.969Z,100304.56
2024-05-09T08:55:47.317Z,100304.31
2024-05-09T08:58:22.922Z,100303.03
2024-05-09T09:00:56.606Z,100290.34
2024-05-09T09:03:28.911Z,100302.81
2024-05-09T09:06:05.467Z,100300.72
2024-05-09T09:08:38.302Z,100298.81
2024-05-09T09:11:12.689Z,100305.88
2024-05-09T09:13:47.761Z,100300.00
2024-05-09T09:16:19.362Z,100294.59
2024-05-09T09:18:48.304Z,100285.63
2024-05-09T09:21:22.133Z,100284.59
2024-05-09T09:24:50.920Z,100288.13
2024-05-09T09:27:21.041Z,100282.13
2024-05-09T09:29:57.423Z,100282.72
2024-05-09T09:32:33.688Z,100287.06
2024-05-09T09:35:05.073Z,100285.44
2024-05-09T09:37:36.026Z,100290.84
2024-05-09T09:40:07.120Z,100289.78
2024-05-09T09:42:40.717Z,100280.00
2024-05-09T09:45:12.162Z,100274.59
2024-05-09T09:47:45.791Z,100274.59
2024-05-09T09:50:20.367Z,100284.34
2024-05-09T09:52:56.295Z,100277.31
2024-05-09T09:55:26.650Z,100281.91
2024-05-09T09:58:01.109Z,100281.66
2024-05-09T10:00:33.797Z,100283.53
2024-05-09T10:03:10.410Z,100288.13
2024-05-09T10:05:40.466Z,100277.50
2024-05-09T10:08:13.430Z,100275.06
2024-05-09T10:11:23.689Z,100275.06
2024-05-09T10:13:56.744Z,100278.34
2024-05-09T10:16:30.815Z,100272.09
2024-05-09T10:19:04.804Z,100275.19
2024-05-09T10:21:32.633Z,100271.63
2024-05-09T10:24:07.163Z,100270.81
2024-05-09T10:30:17.663Z,100272.47
2024-05-09T10:32:52.331Z,100266.22
2024-05-09T10:35:22.750Z,100265.41
2024-05-09T10:37:51.209Z,100273.53
2024-05-09T10:40:40.330Z,100261.28
2024-05-09T10:43:07.766Z,100263.75
2024-05-09T10:45:38.945Z,100254.56
2024-05-09T10:48:09.520Z,100264.09
2024-05-09T10:50:43.804Z,100253.06
2024-05-09T10:53:11.244Z,100247.63
2024-05-09T10:56:35.864Z,100257.41
2024-05-09T10:59:06.589Z,100256.59
2024-05-09T11:01:34.126Z,100250.34
2024-05-09T11:04:07.353Z,100244.94
2024-05-09T11:06:38.168Z,100254.09
2024-05-09T11:09:08.975Z,100254.09
2024-05-09T11:11:36.409Z,100254.09
2024-05-09T11:14:14.925Z,100247.84
2024-05-09T11:16:42.343Z,100248.69
2024-05-09T11:19:19.892Z,100251.63
2024-05-09T11:21:51.645Z,100251.63
2024-05-09T11:24:21.905Z,100250.81
2024-05-09T11:26:49.316Z,100242.69
2024-05-09T11:29:19.854Z,100239.13
2024-05-09T11:31:47.621Z,100238.31
2024-05-09T11:34:21.002Z,100238.31
2024-05-09T11:36:48.534Z,100247.50
2024-05-09T11:39:18.736Z,100249.16
2024-05-09T11:41:58.405Z,100241.28
2024-05-09T11:44:28.974Z,100247.50
2024-05-09T11:46:56.419Z,100245.84
2024-05-09T11:49:29.304Z,100245.84
2024-05-09T11:51:56.838Z,100245.84
2024-05-09T11:54:26.962Z,100235.00
2024-05-09T11:56:55.003Z,100241.28
2024-05-09T11:59:25.130Z,100233.72
2024-05-09T12:01:52.673Z,100237.50
2024-05-09T12:04:23.003Z,100233.72
2024-05-09T12:06:53.215Z,100232.69
2024-05-09T12:09:23.344Z,100234.31
2024-05-09T12:11:50.820Z,100224.31
2024-05-09T12:14:20.935Z,100226.19
2024-05-09T12:16:48.381Z,100226.19
2024-05-09T12:19:18.614Z,100224.56
2024-05-09T12:21:46.173Z,100226.19
2024-05-09T12:24:18.945Z,100225.59
2024-05-09T12:26:46.365Z,100222.06
2024-05-09T12:29:16.502Z,100225.84
2024-05-09T12:31:44.089Z,100221.25
2024-05-09T12:34:14.338Z,100223.13
2024-05-09T12:36:41.966Z,100224.19
2024-05-09T12:39:12.072Z,100224.19
2024-05-09T12:41:42.129Z,100218.75
2024-05-09T12:44:12.203Z,100213.34
2024-05-09T12:46:39.611Z,100216.06
2024-05-09T12:49:09.837Z,100215.00
2024-05-09T12:51:37.391Z,100220.44
2024-05-09T12:54:07.515Z,100213.34
2024-05-09T12:56:34.945Z,100212.53
2024-05-09T12:59:07.691Z,100209.59
2024-05-09T13:01:35.325Z,100212.06
2024-05-09T13:04:05.624Z,100205.00
2024-05-09T13:06:33.209Z,100204.19
2024-05-09T13:09:03.360Z,100200.41
2024-05-09T13:11:30.829Z,100202.06
2024-05-09T13:14:00.949Z,100197.69
2024-05-09T13:16:31.739Z,100206.63
2024-05-09T13:19:01.971Z,100199.59
2024-05-09T13:21:29.500Z,100201.47
2024-05-09T13:24:00.420Z,100192.53
2024-05-09T13:26:27.963Z,100189.56
2024-05-09T13:28:58.039Z,100186.38
2024-05-09T13:31:25.454Z,100172.84
2024-05-09T13:33:58.376Z,100176.16
2024-05-09T13:36:25.810Z,100173.22
2024-05-09T13:38:56.609Z,100175.69
2024-05-09T13:41:24.184Z,100174.88
2024-05-09T13:43:54.256Z,100171.34
2024-05-09T13:46:22.068Z,100175.13
2024-05-09T13:49:10.742Z,100170.25
2024-05-09T13:51:45.019Z,100175.69
2024-05-09T13:54:12.405Z,100167.56
2024-05-09T13:56:42.436Z,100167.56
2024-05-09T13:59:09.831Z,100166.75
2024-05-09T14:01:40.012Z,100160.50
2024-05-09T14:04:09.966Z,100163.22
2024-05-09T14:06:40.349Z,100156.16
2024-05-09T14:09:10.442Z,100160.72
2024-05-09T14:11:40.567Z,100152.03
2024-05-09T14:14:07.994Z,100156.16
2024-05-09T14:16:38.177Z,100152.97
2024-05-09T14:19:05.620Z,100159.00
2024-05-09T14:21:35.749Z,100153.09
2024-05-09T14:24:03.224Z,100146.00
2024-05-09T14:26:35.983Z,100155.38
2024-05-09T14:29:03.381Z,100154.78
2024-05-09T14:31:35.467Z,100152.88
2024-05-09T14:34:03.885Z,100155.81
2024-05-09T14:36:34.553Z,100152.50
2024-05-09T14:39:02.069Z,100147.31
2024-05-09T14:41:32.136Z,100144.84
2024-05-09T14:44:02.216Z,100153.19
2024-05-09T14:46:32.400Z,100147.19
2024-05-09T14:49:00.307Z,100145.53
2024-05-09T14:51:30.545Z,100150.13
2024-05-09T14:53:57.941Z,100152.84
2024-05-09T14:56:28.007Z,100152.03
2024-05-09T14:58:57.193Z,100153.31
2024-05-09T15:01:30.060Z,100147.91
2024-05-09T15:03:57.848Z,100149.75
2024-05-09T15:06:28.025Z,100146.25
2024-05-09T15:08:56.684Z,100142.72
2024-05-09T15:11:30.328Z,100143.78
2024-05-09T15:13:57.744Z,100134.81
2024-05-09T15:16:31.170Z,100132.09
2024-05-09T15:18:59.082Z,100132.09
2024-05-09T15:21:29.305Z,100134.59
2024-05-09T15:23:56.745Z,100127.41
2024-05-09T15:26:26.799Z,100129.50
2024-05-09T15:28:54.173Z,100128.94
2024-05-09T15:31:24.300Z,100130.00
2024-05-09T15:33:54.691Z,100126.69
2024-05-09T15:36:24.872Z,100128.34
2024-05-09T15:38:55.430Z,100119.63
2024-05-09T15:41:25.534Z,100124.22
2024-05-09T15:43:52.988Z,100124.22
2024-05-09T15:46:23.301Z,100119.63
2024-05-09T15:48:51.309Z,100118.00
2024-05-09T15:51:24.197Z,100134.00
2024-05-09T15:53:51.649Z,100118.34
2024-05-09T15:56:21.745Z,100119.16
2024-05-09T15:58:49.541Z,100126.25
2024-05-09T16:01:19.791Z,100128.34
2024-05-09T16:03:47.614Z,100127.53
2024-05-09T16:06:17.899Z,100132.09
2024-05-09T16:08:47.991Z,100131.28
2024-05-09T16:11:20.202Z,100129.66
2024-05-09T16:13:47.801Z,100134.25
2024-05-09T16:16:17.973Z,100131.53
2024-05-09T16:18:45.523Z,100128.22
2024-05-09T16:21:15.691Z,100129.28
2024-05-09T16:23:43.065Z,100138.25
2024-05-09T16:26:15.828Z,100135.53
2024-05-09T16:28:43.244Z,100133.03
2024-05-09T16:31:13.430Z,100135.75
2024-05-09T16:33:41.146Z,100134.13
2024-05-09T16:36:11.479Z,100135.16
2024-05-09T16:38:40.089Z,100137.88
2024-05-09T16:41:19.816Z,100142.47
2024-05-09T16:43:47.240Z,100148.94
2024-05-09T16:46:17.766Z,100142.72
2024-05-09T16:48:46.465Z,100149.16
2024-05-09T16:51:16.593Z,100144.81
2024-05-09T16:53:44.002Z,100145.63
2024-05-09T16:56:14.112Z,100148.56
2024-05-09T16:58:44.213Z,100143.16
2024-05-09T17:01:15.087Z,100150.22
2024-05-09T17:03:42.951Z,100155.66
2024-05-09T17:06:13.400Z,100156.69
2024-05-09T17:08:41.736Z,100152.34
2024-05-09T17:11:15.617Z,100155.88
2024-05-09T17:13:48.470Z,100159.66
2024-05-09T17:16:19.140Z,100168.59
2024-05-09T17:18:50.545Z,100166.94
2024-05-09T17:21:18.250Z,100174.22
2024-05-09T17:23:49.506Z,100182.34
2024-05-09T17:26:16.932Z,100181.53
2024-05-09T17:28:49.671Z,100182.59
2024-05-09T17:31:19.764Z,100183.66
2024-05-09T17:33:47.389Z,100181.19
2024-05-09T17:36:17.643Z,100178.69
2024-05-09T17:38:45.385Z,100178.69
2024-05-09T17:41:15.432Z,100182.47
2024-05-09T17:43:42.827Z,100184.09
2024-05-09T17:46:15.639Z,100187.06
2024-05-09T17:48:43.148Z,100183.53
2024-05-09T17:51:13.609Z,100187.06
2024-05-09T17:53:41.866Z,100183.53
2024-05-09T17:56:11.949Z,100188.34
2024-05-09T17:58:39.372Z,100198.91
2024-05-09T18:01:09.600Z,100192.69
2024-05-09T18:03:40.064Z,100192.94
2024-05-09T18:06:11.377Z,100198.34
2024-05-09T18:08:38.920Z,100202.91
2024-05-09T18:11:09.703Z,100204.19
2024-05-09T18:13:37.247Z,100214.19
2024-05-09T18:16:07.715Z,100209.84
2024-05-09T18:18:35.445Z,100210.91
2024-05-09T18:21:08.488Z,100214.66
2024-05-09T18:23:35.924Z,100214.66
2024-05-09T18:26:05.982Z,100219.47
2024-05-09T18:28:33.462Z,100219.72
2024-05-09T18:31:03.615Z,100227.03
2024-05-09T18:33:31.099Z,100239.72
2024-05-09T18:36:01.232Z,100240.56
2024-05-09T18:38:31.285Z,100241.59
2024-05-09T18:41:01.452Z,100243.47
2024-05-09T18:43:38.007Z,100246.19
2024-05-09T18:46:12.342Z,100253.50
2024-05-09T18:48:40.014Z,100253.69
2024-05-09T18:51:10.375Z,100257.22
2024-05-09T18:53:41.701Z,100266.41
2024-05-09T18:56:12.869Z,100266.63
2024-05-09T18:58:40.279Z,100263.94
2024-05-09T19:01:10.485Z,100269.34
2024-05-09T19:03:38.826Z,100267.69
2024-05-09T19:06:09.152Z,100270.63
2024-05-09T19:08:36.554Z,100269.78
2024-05-09T19:11:09.354Z,100268.16
2024-05-09T19:13:36.805Z,100284.41
2024-05-09T19:16:07.312Z,100286.28
2024-05-09T19:18:35.097Z,100287.31
2024-05-09T19:21:05.216Z,100285.69
2024-05-09T19:23:35.479Z,100284.03
2024-05-09T19:26:10.939Z,100285.88
2024-05-09T19:28:38.354Z,100286.94
2024-05-09T19:31:08.663Z,100286.13
2024-05-09T19:33:37.022Z,100288.19
2024-05-09T19:36:07.881Z,100289.88
2024-05-09T19:38:35.296Z,100293.63
2024-05-09T19:41:05.411Z,100291.97
2024-05-09T19:43:36.226Z,100289.25
2024-05-09T19:46:06.552Z,100286.78
2024-05-09T19:48:34.144Z,100293.00
2024-05-09T19:51:04.389Z,100288.66
2024-05-09T19:53:31.843Z,100287.84
2024-05-09T19:56:08.235Z,100283.47
2024-05-09T19:58:38.369Z,100287.84
2024-05-09T20:01:08.630Z,100285.34
2024-05-09T20:03:37.465Z,100289.13
2024-05-09T20:06:07.928Z,100283.72
2024-05-09T20:08:35.814Z,100280.41
2024-05-09T20:11:05.979Z,100279.13
2024-05-09T20:13:33.435Z,100281.22
2024-05-09T20:16:06.874Z,100288.72
2024-05-09T20:18:34.848Z,100287.91
2024-05-09T20:21:06.547Z,100291.66
2024-05-09T20:23:36.964Z,100297.91
2024-05-09T20:26:04.672Z,100297.09
2024-05-09T20:28:34.803Z,100300.41
2024-05-09T20:31:06.351Z,100304.13
2024-05-09T20:33:37.977Z,100302.50
2024-05-09T20:36:06.520Z,100313.06
2024-05-09T20:38:36.613Z,100308.72
2024-05-09T20:41:04.501Z,100317.91
2024-05-09T20:43:34.690Z,100313.31
2024-05-09T20:46:05.070Z,100320.59
2024-05-09T20:48:35.453Z,100317.06
2024-05-09T20:51:04.593Z,100314.34
2024-05-09T20:53:34.679Z,100309.19
2024-05-09T20:56:02.120Z,100314.59
2024-05-09T20:58:32.606Z,100312.09
2024-05-09T21:01:00.108Z,100310.47
2024-05-09T21:03:40.008Z,100308.78
2024-05-09T21:06:07.501Z,100313.38
2024-05-09T21:08:37.589Z,100321.72
2024-05-09T21:11:05.301Z,100307.59
2024-05-09T21:13:35.764Z,100310.91
2024-05-09T21:16:03.262Z,100315.72
2024-05-09T21:18:36.303Z,100313.00
2024-05-09T21:21:03.905Z,100321.13
2024-05-09T21:23:34.047Z,100324.44
2024-05-09T21:26:01.466Z,100333.38
2024-05-09T21:28:31.610Z,100324.44
2024-05-09T21:30:59.095Z,100330.41
2024-05-09T21:33:29.350Z,100323.38
2024-05-09T21:35:59.467Z,100330.41
2024-05-09T21:38:29.627Z,100332.09
2024-05-09T21:40:57.086Z,100327.50
2024-05-09T21:43:28.762Z,100333.75
2024-05-09T21:46:00.499Z,100339.41
2024-05-09T21:48:30.659Z,100335.84
2024-05-09T21:51:00.748Z,100336.69
2024-05-09T21:53:30.812Z,100332.09
2024-05-09T21:55:58.196Z,100336.06
2024-05-09T21:58:28.931Z,100331.50
2024-05-09T22:00:56.459Z,100326.28
2024-05-09T22:03:26.894Z,100321.72
2024-05-09T22:05:54.478Z,100322.56
2024-05-09T22:08:27.239Z,100322.56
2024-05-09T22:10:54.788Z,100319.22
2024-05-09T22:13:28.851Z,100330.88
2024-05-09T22:15:56.364Z,100322.75
2024-05-09T22:18:26.499Z,100327.13
2024-05-09T22:20:55.274Z,100336.28
2024-05-09T22:23:28.099Z,100333.59
2024-05-09T22:25:55.487Z,100325.47
2024-05-09T22:28:26.080Z,100336.28
2024-05-09T22:30:55.527Z,100332.56
2024-05-09T22:33:25.759Z,100329.84
2024-05-09T22:35:53.234Z,100321.72
2024-05-09T22:38:23.379Z,100325.25
2024-05-09T22:40:53.500Z,100332.56
2024-05-09T22:43:25.061Z,100335.25
2024-05-09T22:45:53.878Z,100320.88
2024-05-09T22:48:25.021Z,100330.88
2024-05-09T22:50:53.043Z,100323.00
2024-05-09T22:53:24.586Z,100324.84
2024-05-09T22:55:54.803Z,100320.50
2024-05-09T22:58:25.836Z,100325.91
2024-05-09T23:00:53.646Z,100328.00
2024-05-09T23:03:23.963Z,100319.09
2024-05-09T23:05:51.501Z,100318.25
2024-05-09T23:08:21.580Z,100314.72
2024-05-09T23:10:49.074Z,100319.31
2024-05-09T23:13:22.257Z,100313.06
2024-05-09T23:15:49.795Z,100313.06
2024-05-09T23:18:20.073Z,100324.72
2024-05-09T23:20:47.627Z,100317.66
2024-05-09T23:23:17.720Z,100320.16
2024-05-09T23:25:45.137Z,100316.63
2024-05-09T23:28:15.264Z,100319.31
2024-05-09T23:30:45.358Z,100319.31
2024-05-09T23:33:15.644Z,100314.72
2024-05-09T23:35:44.180Z,100319.31
2024-05-09T23:38:14.657Z,100313.91
2024-05-09T23:40:43.051Z,100316.63
2024-05-09T23:43:14.018Z,100311.22
2024-05-09T23:45:42.131Z,100319.53
2024-05-09T23:48:15.253Z,100316.81
2024-05-09T23:50:42.753Z,100316.00
2024-05-09T23:53:14.454Z,100318.09
2024-05-09T23:55:41.918Z,100310.00
2024-05-09T23:58:18.057Z,100318.09
